createdAt,value
2017-12-19T00:00:25.486Z,4.00
2017-12-19T00:01:25.498Z,4.00
2017-12-19T00:02:25.506Z,4.00
2017-12-19T00:03:25.523Z,4.00
2017-12-19T00:04:25.533Z,4.00
2017-12-19T00:05:25.543Z,4.00
2017-12-19T00:06:25.556Z,4.00
2017-12-19T00:07:25.571Z,4.00
2017-12-19T00:08:25.581Z,4.00
2017-12-19T00:09:25.645Z,4.00
2017-12-19T00:10:25.603Z,4.00
2017-12-19T00:11:25.616Z,4.00
2017-12-19T00:12:25.628Z,4.00
2017-12-19T00:13:25.641Z,4.00
2017-12-19T00:14:25.652Z,4.00
2017-12-19T00:15:25.668Z,4.00
2017-12-19T00:16:25.679Z,4.00
2017-12-19T00:17:25.688Z,4.00
2017-12-19T00:18:25.702Z,4.00
2017-12-19T00:19:25.711Z,4.00
2017-12-19T00:20:25.721Z,4.00
2017-12-19T00:21:25.734Z,4.00
2017-12-19T00:22:25.749Z,4.00
2017-12-19T00:23:25.763Z,4.00
2017-12-19T00:24:25.768Z,4.00
2017-12-19T00:25:25.781Z,4.00
2017-12-19T00:26:25.791Z,4.00
2017-12-19T00:27:25.808Z,4.00
2017-12-19T00:28:25.822Z,4.00
2017-12-19T00:29:25.833Z,4.00
2017-12-19T00:30:25.839Z,4.00
2017-12-19T00:31:25.852Z,4.00
2017-12-19T00:32:25.865Z,4.00
2017-12-19T00:33:25.874Z,4.00
2017-12-19T00:34:25.887Z,4.00
2017-12-19T00:35:25.898Z,4.00
2017-12-19T00:36:25.911Z,4.00
2017-12-19T00:37:25.922Z,4.00
2017-12-19T00:38:25.933Z,4.00
2017-12-19T00:39:25.956Z,4.00
2017-12-19T00:40:25.960Z,4.00
2017-12-19T00:41:25.970Z,4.00
2017-12-19T00:42:25.983Z,4.00
2017-12-19T00:43:25.997Z,4.00
2017-12-19T00:44:26.004Z,4.00
2017-12-19T00:45:26.017Z,4.00
2017-12-19T00:46:26.028Z,4.00
2017-12-19T00:47:26.043Z,4.00
2017-12-19T00:48:26.050Z,4.00
2017-12-19T00:49:26.061Z,4.00
2017-12-19T00:50:26.075Z,4.00
2017-12-19T00:51:26.086Z,4.00
2017-12-19T00:52:26.096Z,4.00
2017-12-19T00:53:26.108Z,4.00
2017-12-19T00:54:26.120Z,4.00
2017-12-19T00:55:26.131Z,4.00
2017-12-19T00:56:26.148Z,4.00
2017-12-19T00:57:26.161Z,4.00
2017-12-19T00:58:26.181Z,4.00
2017-12-19T00:59:26.179Z,4.00
2017-12-19T01:00:26.196Z,4.00
2017-12-19T01:01:26.204Z,4.00
2017-12-19T01:02:26.215Z,4.00
2017-12-19T01:03:26.227Z,4.00
2017-12-19T01:04:26.239Z,4.00
2017-12-19T01:05:26.254Z,4.00
2017-12-19T01:06:26.261Z,4.00
2017-12-19T01:07:26.273Z,4.00
2017-12-19T01:08:26.290Z,4.00
2017-12-19T01:09:26.300Z,4.00
2017-12-19T01:10:26.308Z,4.00
2017-12-19T01:11:26.318Z,4.00
2017-12-19T01:12:26.336Z,4.00
2017-12-19T01:13:26.346Z,4.00
2017-12-19T01:14:26.359Z,4.00
2017-12-19T01:15:26.367Z,4.00
2017-12-19T01:16:26.380Z,4.00
2017-12-19T01:17:26.392Z,4.00
2017-12-19T01:18:26.402Z,4.00
2017-12-19T01:19:26.414Z,4.00
2017-12-19T01:20:26.429Z,4.00
2017-12-19T01:21:26.437Z,4.00
2017-12-19T01:22:26.448Z,4.00
2017-12-19T01:23:26.460Z,4.00
2017-12-19T01:24:26.472Z,4.00
2017-12-19T01:25:26.486Z,4.00
2017-12-19T01:26:26.498Z,4.00
2017-12-19T01:27:26.541Z,4.00
2017-12-19T01:28:26.521Z,4.00
2017-12-19T01:29:26.533Z,4.00
2017-12-19T01:30:26.545Z,4.00
2017-12-19T01:31:26.555Z,4.00
2017-12-19T01:32:26.570Z,4.00
2017-12-19T01:33:26.579Z,4.00
2017-12-19T01:34:26.590Z,4.00
2017-12-19T01:35:26.603Z,4.00
2017-12-19T01:36:26.618Z,4.00
2017-12-19T01:37:26.631Z,4.00
2017-12-19T01:38:26.638Z,4.00
2017-12-19T01:39:26.651Z,4.00
2017-12-19T01:40:26.662Z,4.00
2017-12-19T01:41:26.673Z,4.00
2017-12-19T01:42:26.685Z,4.00
2017-12-19T01:43:26.699Z,4.00
2017-12-19T01:44:26.710Z,4.00
2017-12-19T01:45:26.722Z,4.00
2017-12-19T01:46:26.833Z,4.00
2017-12-19T01:47:26.745Z,4.00
2017-12-19T01:48:26.762Z,4.00
2017-12-19T01:49:26.770Z,4.00
2017-12-19T01:50:26.780Z,4.00
2017-12-19T01:51:26.798Z,4.00
2017-12-19T01:52:26.808Z,4.00
2017-12-19T01:53:26.818Z,4.00
2017-12-19T01:54:26.829Z,4.00
2017-12-19T01:55:26.840Z,4.00
2017-12-19T01:56:26.858Z,4.00
2017-12-19T01:57:26.865Z,4.00
2017-12-19T01:58:26.875Z,4.00
2017-12-19T01:59:26.889Z,4.00
2017-12-19T02:00:26.904Z,4.00
2017-12-19T02:01:26.916Z,4.00
2017-12-19T02:02:26.925Z,4.00
2017-12-19T02:03:26.937Z,4.00
2017-12-19T02:04:26.948Z,4.00
2017-12-19T02:05:26.966Z,4.00
2017-12-19T02:06:26.972Z,4.00
2017-12-19T02:07:26.983Z,4.00
2017-12-19T02:08:26.996Z,4.00
2017-12-19T02:09:27.008Z,4.00
2017-12-19T02:10:27.024Z,4.00
2017-12-19T02:11:27.029Z,4.00
2017-12-19T02:12:27.042Z,4.00
2017-12-19T02:13:27.055Z,4.00
2017-12-19T02:14:27.069Z,4.00
2017-12-19T02:15:27.075Z,4.00
2017-12-19T02:16:27.155Z,4.00
2017-12-19T02:17:27.103Z,4.00
2017-12-19T02:18:27.114Z,4.00
2017-12-19T02:19:27.126Z,4.00
2017-12-19T02:20:27.145Z,4.00
2017-12-19T02:21:27.149Z,4.00
2017-12-19T02:22:27.154Z,4.00
2017-12-19T02:23:27.171Z,4.00
2017-12-19T02:24:27.180Z,4.00
2017-12-19T02:25:27.193Z,4.00
2017-12-19T02:26:27.204Z,4.00
2017-12-19T02:27:27.215Z,4.00
2017-12-19T02:28:27.227Z,4.00
2017-12-19T02:29:27.253Z,4.00
2017-12-19T02:30:27.252Z,4.00
2017-12-19T02:31:27.260Z,4.00
2017-12-19T02:32:27.273Z,4.00
2017-12-19T02:33:27.285Z,4.00
2017-12-19T02:34:27.296Z,4.00
2017-12-19T02:35:27.307Z,4.00
2017-12-19T02:36:27.320Z,4.00
2017-12-19T02:37:27.332Z,4.00
2017-12-19T02:38:27.350Z,4.00
2017-12-19T02:39:27.358Z,4.00
2017-12-19T02:40:27.368Z,4.00
2017-12-19T02:41:27.382Z,4.00
2017-12-19T02:42:27.390Z,4.00
2017-12-19T02:43:27.402Z,4.00
2017-12-19T02:44:27.416Z,4.00
2017-12-19T02:45:27.428Z,4.00
2017-12-19T02:46:27.438Z,4.00
2017-12-19T02:47:27.452Z,4.00
2017-12-19T02:48:27.469Z,4.00
2017-12-19T02:49:27.477Z,4.00
2017-12-19T02:50:27.484Z,4.00
2017-12-19T02:51:27.502Z,4.00
2017-12-19T02:52:27.510Z,4.00
2017-12-19T02:53:27.522Z,4.00
2017-12-19T02:54:27.532Z,4.00
2017-12-19T02:55:27.544Z,4.00
2017-12-19T02:56:27.556Z,4.00
2017-12-19T02:57:27.567Z,4.00
2017-12-19T02:58:27.581Z,4.00
2017-12-19T02:59:27.591Z,4.00
2017-12-19T03:00:27.602Z,4.00
2017-12-19T03:01:27.615Z,4.00
2017-12-19T03:02:27.628Z,4.00
2017-12-19T03:03:27.637Z,4.00
2017-12-19T03:04:27.651Z,4.00
2017-12-19T03:05:27.664Z,4.00
2017-12-19T03:06:27.677Z,4.00
2017-12-19T03:07:27.686Z,4.00
2017-12-19T03:08:27.702Z,4.00
2017-12-19T03:09:27.710Z,4.00
2017-12-19T03:10:27.720Z,4.00
2017-12-19T03:11:27.733Z,4.00
2017-12-19T03:12:27.746Z,4.00
2017-12-19T03:13:27.758Z,4.00
2017-12-19T03:14:27.771Z,4.00
2017-12-19T03:15:27.784Z,4.00
2017-12-19T03:16:27.793Z,4.00
2017-12-19T03:17:27.804Z,4.00
2017-12-19T03:18:27.816Z,4.00
2017-12-19T03:19:27.830Z,4.00
2017-12-19T03:20:27.838Z,4.00
2017-12-19T03:21:27.852Z,4.00
2017-12-19T03:22:27.863Z,4.00
2017-12-19T03:23:27.880Z,4.00
2017-12-19T03:24:27.886Z,4.00
2017-12-19T03:25:27.897Z,4.00
2017-12-19T03:26:27.909Z,4.00
2017-12-19T03:27:27.979Z,4.00
2017-12-19T03:28:27.963Z,4.00
2017-12-19T03:29:27.945Z,4.00
2017-12-19T03:30:27.961Z,4.00
2017-12-19T03:31:27.971Z,4.00
2017-12-19T03:32:27.996Z,4.00
2017-12-19T03:33:27.991Z,4.00
2017-12-19T03:34:28.002Z,4.00
2017-12-19T03:35:28.015Z,4.00
2017-12-19T03:36:28.028Z,4.00
2017-12-19T03:37:28.038Z,4.00
2017-12-19T03:38:28.055Z,4.00
2017-12-19T03:39:28.064Z,4.00
2017-12-19T03:40:28.082Z,4.00
2017-12-19T03:41:28.290Z,4.00
2017-12-19T03:42:28.097Z,4.00
2017-12-19T03:43:28.109Z,4.00
2017-12-19T03:44:28.123Z,4.00
2017-12-19T03:45:28.137Z,4.00
2017-12-19T03:46:28.147Z,4.00
2017-12-19T03:47:28.156Z,4.00
2017-12-19T03:48:28.168Z,4.00
2017-12-19T03:49:28.181Z,4.00
2017-12-19T03:50:28.194Z,4.00
2017-12-19T03:51:28.205Z,4.00
2017-12-19T03:52:28.216Z,4.00
2017-12-19T03:53:28.229Z,4.00
2017-12-19T03:54:28.239Z,4.00
2017-12-19T03:55:28.252Z,4.00
2017-12-19T03:56:28.262Z,4.00
2017-12-19T03:57:28.274Z,4.00
2017-12-19T03:58:28.284Z,4.00
2017-12-19T03:59:28.297Z,4.00
2017-12-19T04:00:28.310Z,4.00
2017-12-19T04:01:28.321Z,4.00
2017-12-19T04:02:28.334Z,4.00
2017-12-19T04:03:28.346Z,4.00
2017-12-19T04:04:28.362Z,4.00
2017-12-19T04:05:28.367Z,4.00
2017-12-19T04:06:28.380Z,4.00
2017-12-19T04:07:28.390Z,4.00
2017-12-19T04:08:28.410Z,4.00
2017-12-19T04:09:28.416Z,4.00
2017-12-19T04:10:28.428Z,4.00
2017-12-19T04:11:28.438Z,4.00
2017-12-19T04:12:28.458Z,4.00
2017-12-19T04:13:28.462Z,4.00
2017-12-19T04:14:28.478Z,4.00
2017-12-19T04:15:28.481Z,4.00
2017-12-19T04:16:28.494Z,4.00
2017-12-19T04:17:28.509Z,4.00
2017-12-19T04:18:28.519Z,4.00
2017-12-19T04:19:28.527Z,4.00
2017-12-19T04:20:28.547Z,4.00
2017-12-19T04:21:28.555Z,4.00
2017-12-19T04:22:28.565Z,4.00
2017-12-19T04:23:28.580Z,4.00
2017-12-19T04:24:28.590Z,4.00
2017-12-19T04:25:28.601Z,4.00
2017-12-19T04:26:28.612Z,4.00
2017-12-19T04:27:28.627Z,4.00
2017-12-19T04:28:28.640Z,4.00
2017-12-19T04:29:28.650Z,4.00
2017-12-19T04:30:28.658Z,4.00
2017-12-19T04:31:28.671Z,4.00
2017-12-19T04:32:28.682Z,4.00
2017-12-19T04:33:28.697Z,4.00
2017-12-19T04:34:28.710Z,4.00
2017-12-19T04:35:28.718Z,4.00
2017-12-19T04:36:28.732Z,4.00
2017-12-19T04:37:28.741Z,4.00
2017-12-19T04:38:28.755Z,4.00
2017-12-19T04:39:28.765Z,4.00
2017-12-19T04:40:28.805Z,4.00
2017-12-19T04:41:28.789Z,4.00
2017-12-19T04:42:28.800Z,4.00
2017-12-19T04:43:28.816Z,4.00
2017-12-19T04:44:28.824Z,4.00
2017-12-19T04:45:28.840Z,4.00
2017-12-19T04:46:28.847Z,4.00
2017-12-19T04:47:28.860Z,4.00
2017-12-19T04:48:28.874Z,4.00
2017-12-19T04:49:28.890Z,4.00
2017-12-19T04:50:28.896Z,4.00
2017-12-19T04:51:28.906Z,4.00
2017-12-19T04:52:28.918Z,4.00
2017-12-19T04:53:28.932Z,4.00
2017-12-19T04:54:28.942Z,4.00
2017-12-19T04:55:28.957Z,4.00
2017-12-19T04:56:29.020Z,4.00
2017-12-19T04:57:28.982Z,4.00
2017-12-19T04:58:28.993Z,4.00
2017-12-19T04:59:29.006Z,4.00
2017-12-19T05:00:29.018Z,4.00
2017-12-19T05:01:29.029Z,4.00
2017-12-19T05:02:29.044Z,4.00
2017-12-19T05:03:29.050Z,4.00
2017-12-19T05:04:29.064Z,4.00
2017-12-19T05:05:29.075Z,4.00
2017-12-19T05:06:29.088Z,4.00
2017-12-19T05:07:29.096Z,4.00
2017-12-19T05:08:29.105Z,4.00
2017-12-19T05:09:29.121Z,4.00
2017-12-19T05:10:29.232Z,4.00
2017-12-19T05:11:29.138Z,4.00
2017-12-19T05:12:29.156Z,4.00
2017-12-19T05:13:29.188Z,4.00
2017-12-19T05:14:29.176Z,4.00
2017-12-19T05:15:29.190Z,4.00
2017-12-19T05:16:29.201Z,4.00
2017-12-19T05:17:29.212Z,4.00
2017-12-19T05:18:29.222Z,4.00
2017-12-19T05:19:29.232Z,4.00
2017-12-19T05:20:29.294Z,4.00
2017-12-19T05:21:29.254Z,4.00
2017-12-19T05:22:29.268Z,4.00
2017-12-19T05:23:29.276Z,4.00
2017-12-19T05:24:29.288Z,4.00
2017-12-19T05:25:29.306Z,4.00
2017-12-19T05:26:29.311Z,4.00
2017-12-19T05:27:29.323Z,4.00
2017-12-19T05:28:29.335Z,4.00
2017-12-19T05:29:29.346Z,4.00
2017-12-19T05:30:29.357Z,4.00
2017-12-19T05:31:29.370Z,4.00
2017-12-19T05:32:29.386Z,4.00
2017-12-19T05:33:29.393Z,4.00
2017-12-19T05:34:29.406Z,4.00
2017-12-19T05:35:29.418Z,4.00
2017-12-19T05:36:29.434Z,4.00
2017-12-19T05:37:29.440Z,4.00
2017-12-19T05:38:29.462Z,4.00
2017-12-19T05:39:29.462Z,4.00
2017-12-19T05:40:29.473Z,4.00
2017-12-19T05:41:29.487Z,4.00
2017-12-19T05:42:29.509Z,4.00
2017-12-19T05:43:29.509Z,4.00
2017-12-19T05:44:29.524Z,4.00
2017-12-19T05:45:29.536Z,4.00
2017-12-19T05:46:29.547Z,4.00
2017-12-19T05:47:29.556Z,4.00
2017-12-19T05:48:29.569Z,4.00
2017-12-19T05:49:29.582Z,4.00
2017-12-19T05:50:29.592Z,4.00
2017-12-19T05:51:29.604Z,4.00
2017-12-19T05:52:29.618Z,4.00
2017-12-19T05:53:29.628Z,4.00
2017-12-19T05:54:29.645Z,4.00
2017-12-19T05:55:29.650Z,4.00
2017-12-19T05:56:29.671Z,4.00
2017-12-19T05:57:29.687Z,4.00
2017-12-19T05:58:29.692Z,4.00
2017-12-19T05:59:29.698Z,4.00
2017-12-19T06:00:29.721Z,4.00
2017-12-19T06:01:29.723Z,4.00
2017-12-19T06:02:29.737Z,4.00
2017-12-19T06:03:29.748Z,4.00
2017-12-19T06:04:29.760Z,4.00
2017-12-19T06:05:33.776Z,4.00
2017-12-19T06:06:33.287Z,4.00
2017-12-19T06:07:29.807Z,4.00
2017-12-19T06:09:29.822Z,4.00
2017-12-19T06:10:29.833Z,4.00
2017-12-19T06:11:29.847Z,4.00
2017-12-19T06:12:29.854Z,4.00
2017-12-19T06:13:29.868Z,4.00
2017-12-19T06:14:29.880Z,4.00
2017-12-19T06:15:29.891Z,4.00
2017-12-19T06:16:29.902Z,4.00
2017-12-19T06:17:29.916Z,8.00
2017-12-19T06:18:29.927Z,4.00
2017-12-19T06:19:29.941Z,4.00
2017-12-19T06:20:29.956Z,8.00
2017-12-19T06:21:29.962Z,8.00
2017-12-19T06:22:29.979Z,8.00
2017-12-19T06:23:29.986Z,4.00
2017-12-19T06:24:29.998Z,4.00
2017-12-19T06:25:30.013Z,4.00
2017-12-19T06:26:30.029Z,4.00
2017-12-19T06:27:30.034Z,4.00
2017-12-19T06:28:30.045Z,4.00
2017-12-19T06:29:30.059Z,4.00
2017-12-19T06:30:30.090Z,4.00
2017-12-19T06:31:30.081Z,8.00
2017-12-19T06:32:30.215Z,4.00
2017-12-19T06:33:30.130Z,8.00
2017-12-19T06:34:30.129Z,4.00
2017-12-19T06:35:30.128Z,4.00
2017-12-19T06:36:30.166Z,4.00
2017-12-19T06:37:30.159Z,4.00
2017-12-19T06:38:30.169Z,4.00
2017-12-19T06:39:30.180Z,4.00
2017-12-19T06:40:30.189Z,4.00
2017-12-19T06:41:30.202Z,4.00
2017-12-19T06:42:30.227Z,4.00
2017-12-19T06:43:30.231Z,4.00
2017-12-19T06:44:30.249Z,4.00
2017-12-19T06:45:30.251Z,4.00
2017-12-19T06:46:30.261Z,4.00
2017-12-19T06:47:30.274Z,4.00
2017-12-19T06:48:30.301Z,4.00
2017-12-19T06:49:30.298Z,4.00
2017-12-19T06:50:30.313Z,4.00
2017-12-19T06:51:30.325Z,4.00
2017-12-19T06:52:30.334Z,4.00
2017-12-19T06:53:30.344Z,4.00
2017-12-19T06:54:30.355Z,4.00
2017-12-19T06:55:30.373Z,4.00
2017-12-19T06:56:30.379Z,4.00
2017-12-19T06:57:30.392Z,4.00
2017-12-19T06:58:30.405Z,4.00
2017-12-19T06:59:30.415Z,8.00
2017-12-19T07:00:30.425Z,4.00
2017-12-19T07:01:30.439Z,4.00
2017-12-19T07:02:30.448Z,8.00
2017-12-19T07:03:30.479Z,4.00
2017-12-19T07:04:30.478Z,4.00
2017-12-19T07:05:30.534Z,4.00
2017-12-19T07:06:30.498Z,8.00
2017-12-19T07:07:30.504Z,8.00
2017-12-19T07:08:30.515Z,8.00
2017-12-19T07:09:30.541Z,8.00
2017-12-19T07:10:30.540Z,8.00
2017-12-19T07:11:30.560Z,8.00
2017-12-19T07:12:30.559Z,8.00
2017-12-19T07:13:30.572Z,8.00
2017-12-19T07:14:30.583Z,8.00
2017-12-19T07:15:30.595Z,8.00
2017-12-19T07:16:30.609Z,12.00
2017-12-19T07:17:30.624Z,12.00
2017-12-19T07:18:30.631Z,12.00
2017-12-19T07:19:30.643Z,16.00
2017-12-19T07:20:30.656Z,16.00
2017-12-19T07:21:30.672Z,20.00
2017-12-19T07:22:30.694Z,24.00
2017-12-19T07:23:30.703Z,28.00
2017-12-19T07:24:30.703Z,28.00
2017-12-19T07:25:30.721Z,36.00
2017-12-19T07:26:30.928Z,36.00
2017-12-19T07:27:30.941Z,40.00
2017-12-19T07:28:30.754Z,44.00
2017-12-19T07:30:30.774Z,56.00
2017-12-19T07:31:30.788Z,60.00
2017-12-19T07:32:30.803Z,60.00
2017-12-19T07:33:30.810Z,72.00
2017-12-19T07:34:31.315Z,72.00
2017-12-19T07:35:30.832Z,76.00
2017-12-19T07:36:30.845Z,84.00
2017-12-19T07:37:30.857Z,88.00
2017-12-19T07:38:30.870Z,96.00
2017-12-19T07:39:30.889Z,100.00
2017-12-19T07:40:30.892Z,104.00
2017-12-19T07:41:30.905Z,108.00
2017-12-19T07:42:30.917Z,112.00
2017-12-19T07:43:30.927Z,116.00
2017-12-19T07:44:30.954Z,124.00
2017-12-19T07:45:30.953Z,128.00
2017-12-19T07:46:30.964Z,136.00
2017-12-19T07:47:30.974Z,144.00
2017-12-19T07:48:30.986Z,148.00
2017-12-19T07:49:30.998Z,156.00
2017-12-19T07:50:31.009Z,168.00
2017-12-19T07:51:31.021Z,184.00
2017-12-19T07:52:31.034Z,192.00
2017-12-19T07:53:31.058Z,208.00
2017-12-19T07:54:31.055Z,212.00
2017-12-19T07:55:31.340Z,228.00
2017-12-19T07:56:31.083Z,232.00
2017-12-19T07:57:31.095Z,224.00
2017-12-19T07:58:31.116Z,220.00
2017-12-19T07:59:31.201Z,220.00
2017-12-19T08:00:33.913Z,220.00
2017-12-19T08:01:32.568Z,208.00
2017-12-19T08:02:31.163Z,208.00
2017-12-19T08:03:31.164Z,196.00
2017-12-19T08:04:31.178Z,196.00
2017-12-19T08:05:31.188Z,200.00
2017-12-19T08:06:31.227Z,200.00
2017-12-19T08:07:31.224Z,212.00
2017-12-19T08:08:31.224Z,224.00
2017-12-19T08:10:31.249Z,244.00
2017-12-19T08:11:31.265Z,248.00
2017-12-19T08:12:36.174Z,248.00
2017-12-19T08:13:35.721Z,240.00
2017-12-19T08:14:35.498Z,248.00
2017-12-19T08:15:31.621Z,244.00
2017-12-19T08:16:31.320Z,236.00
2017-12-19T08:17:31.333Z,244.00
2017-12-19T08:18:31.368Z,264.00
2017-12-19T08:19:31.356Z,268.00
2017-12-19T08:20:31.367Z,272.00
2017-12-19T08:21:31.400Z,280.00
2017-12-19T08:22:34.758Z,292.00
2017-12-19T08:23:35.276Z,304.00
2017-12-19T08:24:31.417Z,300.00
2017-12-19T08:25:31.427Z,316.00
2017-12-19T08:26:31.440Z,328.00
2017-12-19T08:27:31.449Z,356.00
2017-12-19T08:28:31.461Z,364.00
2017-12-19T08:29:31.472Z,368.00
2017-12-19T08:30:31.485Z,368.00
2017-12-19T08:31:31.497Z,380.00
2017-12-19T08:32:31.569Z,380.00
2017-12-19T08:33:32.831Z,380.00
2017-12-19T08:34:31.749Z,388.00
2017-12-19T08:35:31.543Z,396.00
2017-12-19T08:36:31.571Z,416.00
2017-12-19T08:37:31.568Z,436.00
2017-12-19T08:38:31.983Z,448.00
2017-12-19T08:39:31.596Z,448.00
2017-12-19T08:40:31.618Z,452.00
2017-12-19T08:41:31.616Z,460.00
2017-12-19T08:42:31.630Z,468.00
2017-12-19T08:43:31.657Z,500.00
2017-12-19T08:44:31.655Z,520.00
2017-12-19T08:45:31.667Z,560.00
2017-12-19T08:46:31.676Z,596.00
2017-12-19T08:47:31.688Z,636.00
2017-12-19T08:48:31.702Z,656.00
2017-12-19T08:49:31.712Z,692.00
2017-12-19T08:50:31.727Z,700.00
2017-12-19T08:51:31.838Z,692.00
2017-12-19T08:52:31.749Z,692.00
2017-12-19T08:53:31.767Z,688.00
2017-12-19T08:54:31.772Z,684.00
2017-12-19T08:55:31.789Z,696.00
2017-12-19T08:56:31.798Z,672.00
2017-12-19T08:57:31.809Z,704.00
2017-12-19T08:58:31.821Z,696.00
2017-12-19T08:59:31.836Z,708.00
2017-12-19T09:00:31.846Z,692.00
2017-12-19T09:01:31.863Z,688.00
2017-12-19T09:02:31.874Z,684.00
2017-12-19T09:03:31.881Z,704.00
2017-12-19T09:04:31.893Z,708.00
2017-12-19T09:05:31.905Z,704.00
2017-12-19T09:06:31.932Z,700.00
2017-12-19T09:07:31.932Z,712.00
2017-12-19T09:08:31.945Z,688.00
2017-12-19T09:09:31.955Z,692.00
2017-12-19T09:10:31.968Z,696.00
2017-12-19T09:11:31.977Z,740.00
2017-12-19T09:12:31.993Z,768.00
2017-12-19T09:13:32.005Z,784.00
2017-12-19T09:14:32.487Z,828.00
2017-12-19T09:15:32.625Z,844.00
2017-12-19T09:16:32.168Z,872.00
2017-12-19T09:17:32.360Z,900.00
2017-12-19T09:18:32.066Z,884.00
2017-12-19T09:19:32.092Z,892.00
2017-12-19T09:20:32.088Z,932.00
2017-12-19T09:21:32.231Z,924.00
2017-12-19T09:22:32.549Z,912.00
2017-12-19T09:23:32.121Z,912.00
2017-12-19T09:24:32.135Z,936.00
2017-12-19T09:25:32.165Z,916.00
2017-12-19T09:26:32.157Z,912.00
2017-12-19T09:27:32.169Z,912.00
2017-12-19T09:28:32.626Z,932.00
2017-12-19T09:29:32.500Z,988.00
2017-12-19T09:30:32.205Z,952.00
2017-12-19T09:32:32.232Z,1000.00
2017-12-19T09:33:32.243Z,992.00
2017-12-19T09:34:32.256Z,1020.00
2017-12-19T09:35:32.268Z,980.00
2017-12-19T09:36:32.421Z,976.00
2017-12-19T09:37:32.292Z,1024.00
2017-12-19T09:38:32.322Z,996.00
2017-12-19T09:39:33.028Z,1012.00
2017-12-19T09:40:35.360Z,1064.00
2017-12-19T09:41:32.344Z,1160.00
2017-12-19T09:42:32.365Z,1208.00
2017-12-19T09:43:32.368Z,1168.00
2017-12-19T09:44:33.024Z,1136.00
2017-12-19T09:45:33.102Z,1132.00
2017-12-19T09:46:32.403Z,1216.00
2017-12-19T09:47:32.433Z,1148.00
2017-12-19T09:48:32.428Z,1136.00
2017-12-19T09:49:32.460Z,1088.00
2017-12-19T09:50:32.454Z,1096.00
2017-12-19T09:51:32.469Z,1088.00
2017-12-19T09:53:32.489Z,1088.00
2017-12-19T09:54:32.527Z,1036.00
2017-12-19T09:55:32.530Z,1044.00
2017-12-19T09:56:32.531Z,1060.00
2017-12-19T09:57:32.539Z,1084.00
2017-12-19T09:58:32.552Z,1136.00
2017-12-19T09:59:32.563Z,1124.00
2017-12-19T10:00:32.576Z,1164.00
2017-12-19T10:01:32.603Z,1144.00
2017-12-19T10:02:32.603Z,1220.00
2017-12-19T10:03:32.616Z,1288.00
2017-12-19T10:04:32.659Z,1240.00
2017-12-19T10:05:32.644Z,1272.00
2017-12-19T10:06:32.662Z,1288.00
2017-12-19T10:07:32.664Z,1292.00
2017-12-19T10:08:32.677Z,1236.00
2017-12-19T10:09:32.688Z,1300.00
2017-12-19T10:10:33.031Z,1336.00
2017-12-19T10:11:32.722Z,1380.00
2017-12-19T10:12:32.725Z,1416.00
2017-12-19T10:13:33.022Z,1424.00
2017-12-19T10:14:32.750Z,1488.00
2017-12-19T10:15:32.767Z,1508.00
2017-12-19T10:16:32.776Z,1468.00
2017-12-19T10:17:32.789Z,1472.00
2017-12-19T10:18:32.802Z,1492.00
2017-12-19T10:19:32.823Z,1560.00
2017-12-19T10:20:32.836Z,1752.00
2017-12-19T10:21:32.838Z,1900.00
2017-12-19T10:22:33.136Z,1932.00
2017-12-19T10:23:32.868Z,1912.00
2017-12-19T10:24:32.906Z,1936.00
2017-12-19T10:25:32.892Z,1956.00
2017-12-19T10:26:32.971Z,1928.00
2017-12-19T10:27:32.915Z,2020.00
2017-12-19T10:29:32.959Z,1940.00
2017-12-19T10:30:32.951Z,1912.00
2017-12-19T10:31:33.270Z,1748.00
2017-12-19T10:32:33.329Z,1656.00
2017-12-19T10:33:33.008Z,1664.00
2017-12-19T10:34:33.008Z,1720.00
2017-12-19T10:35:33.039Z,1664.00
2017-12-19T10:36:33.031Z,1636.00
2017-12-19T10:37:33.043Z,1736.00
2017-12-19T10:38:33.057Z,1732.00
2017-12-19T10:39:33.077Z,1776.00
2017-12-19T10:40:33.081Z,1720.00
2017-12-19T10:41:33.094Z,1756.00
2017-12-19T10:42:33.106Z,1792.00
2017-12-19T10:43:33.168Z,1820.00
2017-12-19T10:44:33.132Z,1892.00
2017-12-19T10:45:33.145Z,1872.00
2017-12-19T10:46:33.164Z,1864.00
2017-12-19T10:47:33.177Z,1848.00
2017-12-19T10:48:34.425Z,1896.00
2017-12-19T10:49:33.209Z,1888.00
2017-12-19T10:50:33.212Z,1872.00
2017-12-19T10:51:33.223Z,1780.00
2017-12-19T10:52:33.245Z,1804.00
2017-12-19T10:53:33.251Z,1828.00
2017-12-19T10:54:33.264Z,1892.00
2017-12-19T10:55:33.274Z,1872.00
2017-12-19T10:56:33.300Z,1864.00
2017-12-19T10:57:35.415Z,1864.00
2017-12-19T10:58:34.368Z,1880.00
2017-12-19T10:59:33.355Z,1784.00
2017-12-19T11:00:33.342Z,1780.00
2017-12-19T11:01:33.359Z,1936.00
2017-12-19T11:02:34.335Z,2004.00
2017-12-19T11:03:33.379Z,1796.00
2017-12-19T11:04:33.399Z,1724.00
2017-12-19T11:05:33.408Z,1632.00
2017-12-19T11:06:33.780Z,1568.00
2017-12-19T11:07:33.431Z,1548.00
2017-12-19T11:08:33.444Z,1564.00
2017-12-19T11:09:33.457Z,1624.00
2017-12-19T11:10:33.476Z,1708.00
2017-12-19T11:11:33.493Z,1804.00
2017-12-19T11:12:33.500Z,1908.00
2017-12-19T11:13:33.530Z,1928.00
2017-12-19T11:14:33.525Z,1964.00
2017-12-19T11:15:35.731Z,2088.00
2017-12-19T11:16:33.556Z,2040.00
2017-12-19T11:17:33.561Z,1704.00
2017-12-19T11:18:34.918Z,1452.00
2017-12-19T11:19:33.590Z,1276.00
2017-12-19T11:20:33.606Z,1140.00
2017-12-19T11:21:33.678Z,1192.00
2017-12-19T11:22:33.832Z,1368.00
2017-12-19T11:23:33.643Z,1532.00
2017-12-19T11:24:33.720Z,1504.00
2017-12-19T11:25:33.671Z,1424.00
2017-12-19T11:26:33.792Z,1348.00
2017-12-19T11:27:33.695Z,1308.00
2017-12-19T11:28:34.443Z,1248.00
2017-12-19T11:29:33.721Z,1180.00
2017-12-19T11:30:33.737Z,1144.00
2017-12-19T11:31:33.747Z,1228.00
2017-12-19T11:32:33.763Z,1284.00
2017-12-19T11:33:33.786Z,1344.00
2017-12-19T11:34:33.786Z,1532.00
2017-12-19T11:35:33.816Z,1528.00
2017-12-19T11:36:33.818Z,1432.00
2017-12-19T11:37:33.831Z,1284.00
2017-12-19T11:38:33.842Z,1208.00
2017-12-19T11:39:33.851Z,1184.00
2017-12-19T11:40:33.924Z,1212.00
2017-12-19T11:41:33.880Z,1340.00
2017-12-19T11:42:33.893Z,1328.00
2017-12-19T11:43:33.905Z,1252.00
2017-12-19T11:44:33.923Z,1200.00
2017-12-19T11:45:33.932Z,1300.00
2017-12-19T11:46:33.945Z,1312.00
2017-12-19T11:47:33.975Z,1316.00
2017-12-19T11:48:33.975Z,1416.00
2017-12-19T11:49:33.985Z,1500.00
2017-12-19T11:50:34.000Z,1500.00
2017-12-19T11:51:34.010Z,1576.00
2017-12-19T11:52:34.028Z,1508.00
2017-12-19T11:53:34.041Z,1488.00
2017-12-19T11:54:34.051Z,1608.00
2017-12-19T11:55:34.069Z,1684.00
2017-12-19T11:56:34.081Z,1584.00
2017-12-19T11:57:34.104Z,1492.00
2017-12-19T11:58:34.105Z,1420.00
2017-12-19T11:59:34.118Z,1392.00
2017-12-19T12:00:34.131Z,1408.00
2017-12-19T12:01:34.156Z,1280.00
2017-12-19T12:02:34.157Z,1180.00
2017-12-19T12:03:34.174Z,1140.00
2017-12-19T12:04:34.342Z,1144.00
2017-12-19T12:05:34.203Z,1164.00
2017-12-19T12:06:34.217Z,1188.00
2017-12-19T12:07:34.225Z,1176.00
2017-12-19T12:08:34.243Z,1148.00
2017-12-19T12:09:34.252Z,1144.00
2017-12-19T12:10:34.275Z,1128.00
2017-12-19T12:11:34.280Z,1104.00
2017-12-19T12:13:34.306Z,1092.00
2017-12-19T12:14:36.030Z,1132.00
2017-12-19T12:15:34.332Z,1144.00
2017-12-19T12:16:34.995Z,1120.00
2017-12-19T12:17:34.436Z,1084.00
2017-12-19T12:18:35.496Z,1068.00
2017-12-19T12:19:34.619Z,1064.00
2017-12-19T12:20:34.402Z,1152.00
2017-12-19T12:21:34.474Z,1156.00
2017-12-19T12:22:34.543Z,1196.00
2017-12-19T12:23:34.440Z,1272.00
2017-12-19T12:24:34.455Z,1284.00
2017-12-19T12:25:34.896Z,1212.00
2017-12-19T12:26:34.480Z,1112.00
2017-12-19T12:27:34.494Z,1144.00
2017-12-19T12:28:34.522Z,1156.00
2017-12-19T12:29:34.518Z,1336.00
2017-12-19T12:30:34.542Z,1256.00
2017-12-19T12:31:34.551Z,1092.00
2017-12-19T12:32:34.578Z,1020.00
2017-12-19T12:33:34.583Z,1076.00
2017-12-19T12:34:34.591Z,1176.00
2017-12-19T12:35:34.598Z,1076.00
2017-12-19T12:36:34.611Z,1060.00
2017-12-19T12:37:34.627Z,1068.00
2017-12-19T12:38:34.639Z,1120.00
2017-12-19T12:39:34.650Z,1072.00
2017-12-19T12:40:34.710Z,1032.00
2017-12-19T12:41:34.776Z,1084.00
2017-12-19T12:42:34.744Z,1104.00
2017-12-19T12:43:35.289Z,1228.00
2017-12-19T12:44:35.309Z,1300.00
2017-12-19T12:45:34.732Z,1256.00
2017-12-19T12:46:34.765Z,1072.00
2017-12-19T12:47:34.857Z,1012.00
2017-12-19T12:48:35.373Z,948.00
2017-12-19T12:49:34.787Z,752.00
2017-12-19T12:50:34.796Z,636.00
2017-12-19T12:51:34.811Z,676.00
2017-12-19T12:52:34.832Z,740.00
2017-12-19T12:53:34.882Z,812.00
2017-12-19T12:54:35.020Z,820.00
2017-12-19T12:55:34.866Z,740.00
2017-12-19T12:56:34.883Z,740.00
2017-12-19T12:57:34.891Z,736.00